Darras Hall, United Kingdom
Current Conditions -  °F | °C
As of 5:20 AM on Saturday 29 Nov 2014 (Local Time) from EGNT Reporting Station
Haze Haze  
Wind Chill: 45°   Ceiling: 400
Heat Index: 48°   Visibility: 1.2mi
Dew Point: 48°   Wind: 7mph
Humidity: 100%   Direction: 110°ESE
Pressure: 29.85"   Gusts: NA
Location:  55.04°N, 1.76°W
Report Text: EGNT 290520Z 11006KT 2000 BR OVC004 09/09 Q1011
Loading
Personal Weather Stations






























Interactive Weather Map New forecast layout! Learn more

10-Day Weather Forecast

Advertisements
Track Severe Weather on mobile